Time;durP1;ratioP1;P1;durP2;ratioP2;P2;SDS_P1;SDS_P2;PMS_P1;PMS_P2;Temp;Humidity;BMP_temperature;BMP_pressure;BME280_temperature;BME280_humidity;BME280_pressure;Samples;Min_cycle;Max_cycle;Signal;HPM_P1;HPM_P2
2024/04/14 00:00:17;;;;;;;20.80;9.40;;;;;;;15.55;53.34;100931.80;108963;1250;96716;-72
2024/04/14 00:03:28;;;;;;;19.30;9.40;;;;;;;15.43;53.47;100929.79;109018;1250;113862;-72
2024/04/14 00:06:22;;;;;;;21.70;9.40;;;;;;;15.36;53.57;100929.98;108884;1250;96409;-72
2024/04/14 00:09:13;;;;;;;19.40;9.40;;;;;;;15.28;53.69;100927.50;108927;1250;106356;-72
2024/04/14 00:12:05;;;;;;;16.90;8.80;;;;;;;15.20;53.66;100926.63;108910;1250;96569;-73
2024/04/14 00:14:56;;;;;;;20.90;8.90;;;;;;;15.13;53.89;100919.92;108977;1249;96667;-72
2024/04/14 00:17:47;;;;;;;19.80;8.80;;;;;;;15.07;54.04;100922.59;108990;1250;111416;-72
2024/04/14 00:20:38;;;;;;;19.50;8.40;;;;;;;15.02;54.41;100918.43;108937;1250;96748;-72
2024/04/14 00:23:28;;;;;;;21.50;9.10;;;;;;;14.99;54.27;100921.35;108973;1250;106392;-72
2024/04/14 00:26:19;;;;;;;17.70;9.10;;;;;;;14.94;54.45;100919.10;108876;1250;97037;-72
2024/04/14 00:29:09;;;;;;;21.50;8.40;;;;;;;14.92;54.53;100917.13;108950;1250;96307;-72
2024/04/14 00:32:00;;;;;;;21.10;8.90;;;;;;;14.87;54.55;100918.42;108869;1250;111373;-72
2024/04/14 00:34:53;;;;;;;21.30;8.80;;;;;;;14.81;54.71;100917.02;108916;1250;96225;-72
2024/04/14 00:37:44;;;;;;;20.70;8.90;;;;;;;14.74;54.91;100914.59;109015;1249;106441;-72
2024/04/14 00:40:35;;;;;;;18.40;8.60;;;;;;;14.70;55.04;100914.11;108896;1250;96263;-72
2024/04/14 00:43:26;;;;;;;19.60;8.70;;;;;;;14.70;55.09;100918.52;109013;1249;96834;-72
2024/04/14 00:46:20;;;;;;;21.10;9.20;;;;;;;14.65;55.33;100915.77;109059;1249;111222;-72
2024/04/14 00:49:12;;;;;;;17.60;8.80;;;;;;;14.59;55.29;100914.86;108842;1250;99981;-72
2024/04/14 00:52:05;;;;;;;21.40;9.00;;;;;;;14.54;55.62;100911.56;108820;1250;106496;-72
2024/04/14 00:54:57;;;;;;;18.90;8.70;;;;;;;14.51;55.86;100910.78;108836;1250;96241;-72
2024/04/14 00:57:48;;;;;;;22.40;10.00;;;;;;;14.46;55.92;100917.49;108920;1250;97006;-72
2024/04/14 01:00:30;;;;;;;20.20;8.80;;;;;;;14.40;55.75;100912.43;108900;1250;111355;-72
2024/04/14 01:03:21;;;;;;;21.30;9.50;;;;;;;14.34;55.98;100912.45;108927;1249;96726;-72
2024/04/14 01:06:12;;;;;;;19.60;9.10;;;;;;;14.29;56.08;100914.79;109028;1249;106240;-72
2024/04/14 01:09:04;;;;;;;23.50;9.50;;;;;;;14.25;56.11;100913.25;108895;1250;96318;-72
2024/04/14 01:11:55;;;;;;;19.80;8.60;;;;;;;14.21;56.37;100916.15;108920;1249;96936;-72
2024/04/14 01:14:46;;;;;;;21.10;9.40;;;;;;;14.16;56.43;100916.52;108999;1249;111439;-72
2024/04/14 01:17:37;;;;;;;19.10;8.20;;;;;;;14.12;56.79;100913.60;108935;1250;96377;-72
2024/04/14 01:20:28;;;;;;;20.50;8.50;;;;;;;14.10;57.05;100914.09;109009;1250;106479;-72
2024/04/14 01:23:19;;;;;;;19.20;8.40;;;;;;;14.14;57.15;100910.33;108851;1250;96794;-72
2024/04/14 01:26:10;;;;;;;21.00;8.50;;;;;;;14.17;57.05;100910.94;109128;1249;96571;-72
2024/04/14 01:29:01;;;;;;;20.20;8.80;;;;;;;14.22;57.27;100913.00;109000;1250;111149;-72
2024/04/14 01:31:51;;;;;;;18.90;7.90;;;;;;;14.21;57.42;100915.09;108948;1250;96264;-72
2024/04/14 01:34:42;;;;;;;18.80;8.10;;;;;;;14.21;57.46;100911.91;108947;1250;107445;-72
2024/04/14 01:37:34;;;;;;;23.00;8.20;;;;;;;14.17;57.43;100912.71;108971;1249;96231;-72
2024/04/14 01:40:25;;;;;;;20.70;8.20;;;;;;;14.13;57.58;100910.28;109099;1249;96228;-72
2024/04/14 01:43:16;;;;;;;20.30;8.00;;;;;;;14.08;57.58;100909.45;108989;1250;111610;-72
2024/04/14 01:46:07;;;;;;;18.50;8.40;;;;;;;14.03;57.67;100909.68;108996;1249;97376;-72
2024/04/14 01:48:50;;;;;;;16.20;7.50;;;;;;;13.99;57.68;100911.49;109096;1250;107817;-72
2024/04/14 01:51:41;;;;;;;17.60;7.90;;;;;;;13.95;57.79;100912.25;108908;1249;96649;-72
2024/04/14 01:54:32;;;;;;;16.50;7.60;;;;;;;13.88;58.27;100922.44;109007;1249;96720;-72
2024/04/14 01:57:23;;;;;;;15.60;7.70;;;;;;;13.82;58.03;100928.05;108979;1249;111353;-72
2024/04/14 02:00:15;;;;;;;16.60;8.40;;;;;;;13.76;58.44;100928.92;108961;1250;97019;-72
2024/04/14 02:02:46;;;;;;;17.80;7.90;;;;;;;13.74;58.46;100930.09;109015;1250;107560;-72
2024/04/14 02:05:38;;;;;;;17.90;8.30;;;;;;;13.71;58.36;100932.64;109035;1249;96356;-72
2024/04/14 02:08:29;;;;;;;21.00;7.30;;;;;;;13.64;58.74;100926.66;109018;1249;96227;-72
2024/04/14 02:11:20;;;;;;;16.80;7.60;;;;;;;13.64;58.98;100929.46;108861;1250;117021;-72
2024/04/14 02:14:11;;;;;;;19.90;7.90;;;;;;;13.62;59.10;100938.55;108860;1250;96253;-72
2024/04/14 02:17:02;;;;;;;18.90;8.10;;;;;;;13.59;59.17;100942.50;108813;1250;106148;-74
2024/04/14 02:19:53;;;;;;;18.90;7.80;;;;;;;13.55;59.11;100941.69;108949;1250;96898;-72
2024/04/14 02:22:43;;;;;;;24.20;8.00;;;;;;;13.51;59.21;100938.92;109113;1249;96332;-72
2024/04/14 02:25:35;;;;;;;18.20;8.00;;;;;;;13.49;59.36;100940.27;109073;1249;111456;-72
2024/04/14 02:28:25;;;;;;;18.70;8.10;;;;;;;13.47;59.56;100940.04;108966;1250;96261;-72
2024/04/14 02:31:16;;;;;;;16.90;7.70;;;;;;;13.48;59.64;100936.72;108897;1249;106475;-72
2024/04/14 02:34:00;;;;;;;20.30;7.80;;;;;;;13.49;59.72;100935.34;108943;1250;96376;-72
2024/04/14 02:36:51;;;;;;;18.80;7.30;;;;;;;13.52;59.95;100932.61;109059;1249;96225;-72
2024/04/14 02:39:42;;;;;;;18.50;7.70;;;;;;;13.58;59.89;100932.10;108952;1249;111293;-72
2024/04/14 02:42:36;;;;;;;16.00;7.80;;;;;;;13.62;60.18;100932.25;109102;1250;99318;-73
2024/04/14 02:45:29;;;;;;;15.90;7.20;;;;;;;13.68;60.15;100937.85;108989;1249;106364;-72
2024/04/14 02:48:20;;;;;;;17.20;7.50;;;;;;;13.72;60.35;100934.27;109079;1250;96269;-72
2024/04/14 02:51:11;;;;;;;17.20;7.50;;;;;;;13.77;60.33;100936.53;109003;1249;96270;-72
2024/04/14 02:54:00;;;;;;;16.80;7.00;;;;;;;13.81;60.22;100934.20;108964;1250;112867;-72
2024/04/14 02:56:51;;;;;;;15.40;7.20;;;;;;;13.84;60.32;100933.73;108954;1250;96819;-72
2024/04/14 02:59:42;;;;;;;18.70;7.50;;;;;;;13.81;60.34;100931.89;108892;1251;106304;-72
2024/04/14 03:02:33;;;;;;;17.30;7.20;;;;;;;13.82;60.58;100936.15;109008;1249;96847;-73
2024/04/14 03:05:24;;;;;;;19.50;7.30;;;;;;;13.83;60.49;100940.06;108976;1250;96243;-72
2024/04/14 03:08:15;;;;;;;17.00;6.90;;;;;;;13.81;60.54;100938.77;108992;1251;111412;-72
2024/04/14 03:11:07;;;;;;;16.50;7.10;;;;;;;13.82;60.68;100938.23;109032;1250;96303;-72
2024/04/14 03:13:58;;;;;;;19.60;7.50;;;;;;;13.84;60.85;100937.80;108912;1249;106263;-72
2024/04/14 03:16:49;;;;;;;16.50;6.90;;;;;;;13.87;60.77;100934.34;108950;1249;96243;-72
2024/04/14 03:19:40;;;;;;;17.00;6.60;;;;;;;13.88;60.76;100935.60;108991;1250;96224;-72
2024/04/14 03:22:31;;;;;;;17.00;6.60;;;;;;;13.89;60.88;100935.83;108951;1250;111266;-72
2024/04/14 03:25:23;;;;;;;18.00;7.00;;;;;;;13.91;60.97;100939.40;108888;1250;97312;-71
2024/04/14 03:28:14;;;;;;;15.30;7.00;;;;;;;13.92;60.92;100948.38;109091;1249;106171;-71
2024/04/14 03:31:05;;;;;;;15.60;7.50;;;;;;;13.84;60.86;100950.11;108778;1251;96345;-72
2024/04/14 03:33:56;;;;;;;18.60;7.70;;;;;;;13.73;60.91;100949.95;108953;1250;96854;-72
2024/04/14 03:36:39;;;;;;;15.10;7.70;;;;;;;13.65;61.18;100944.09;108943;1250;112789;-72
2024/04/14 03:39:30;;;;;;;16.20;7.00;;;;;;;13.60;61.06;100945.52;109013;1249;96911;-72
2024/04/14 03:42:21;;;;;;;19.00;7.10;;;;;;;13.59;61.28;100947.23;108945;1249;106412;-72
2024/04/14 03:45:12;;;;;;;16.10;7.20;;;;;;;13.55;61.22;100947.13;109092;1250;96264;-72
2024/04/14 03:48:03;;;;;;;19.10;7.70;;;;;;;13.52;61.34;100944.73;108909;1252;96760;-72
2024/04/14 03:50:54;;;;;;;19.10;7.50;;;;;;;13.50;61.51;100944.84;109137;1250;111670;-72
2024/04/14 03:53:45;;;;;;;15.70;7.20;;;;;;;13.48;61.59;100947.27;109005;1249;96310;-72
2024/04/14 03:56:36;;;;;;;20.80;7.30;;;;;;;13.47;61.87;100950.55;108936;1249;106226;-72
2024/04/14 03:59:27;;;;;;;18.00;7.10;;;;;;;13.48;62.05;100950.43;108947;1249;96287;-72
2024/04/14 04:02:18;;;;;;;16.80;7.40;;;;;;;13.53;62.09;100953.56;108950;1250;97213;-72
2024/04/14 04:05:01;;;;;;;19.30;7.80;;;;;;;13.53;62.09;100949.00;109048;1250;111356;-72
2024/04/14 04:07:52;;;;;;;17.20;7.60;;;;;;;13.50;62.08;100954.17;109143;1250;96250;-72
2024/04/14 04:10:43;;;;;;;18.80;7.70;;;;;;;13.47;62.22;100953.39;108932;1249;106907;-72
2024/04/14 04:13:34;;;;;;;16.30;7.60;;;;;;;13.45;62.29;100949.09;108927;1249;96469;-72
2024/04/14 04:16:25;;;;;;;19.20;7.90;;;;;;;13.43;62.50;100947.99;108961;1249;96342;-73
2024/04/14 04:19:15;;;;;;;18.30;7.80;;;;;;;13.44;62.67;100951.71;108998;1250;111160;-72
2024/04/14 04:22:06;;;;;;;17.30;7.60;;;;;;;13.44;62.69;100949.79;108962;1250;96260;-72
2024/04/14 04:24:42;;;;;;;17.30;7.80;;;;;;;13.43;62.87;100951.32;109014;1249;105763;-72
2024/04/14 04:27:33;;;;;;;20.60;7.90;;;;;;;13.44;62.91;100953.81;108908;1250;96871;-72
2024/04/14 04:30:24;;;;;;;18.10;7.50;;;;;;;13.45;62.94;100956.85;109057;1249;96195;-73
2024/04/14 04:33:15;;;;;;;18.20;7.20;;;;;;;13.47;63.17;100958.85;109077;1249;111625;-72
2024/04/14 04:36:07;;;;;;;19.90;8.10;;;;;;;13.49;63.30;100958.72;108954;1250;96303;-72
2024/04/14 04:39:04;;;;;;;18.70;7.30;;;;;;;13.50;63.44;100957.34;108931;1250;107663;-72
2024/04/14 04:41:55;;;;;;;14.30;6.70;;;;;;;13.53;63.50;100964.64;108940;1249;97126;-72
2024/04/14 04:44:46;;;;;;;18.00;7.50;;;;;;;13.59;63.72;100964.84;108949;1250;96264;-72
2024/04/14 04:47:30;;;;;;;19.80;7.10;;;;;;;13.70;64.01;100967.95;108932;1249;111556;-72
2024/04/14 04:50:21;;;;;;;18.30;7.50;;;;;;;13.79;63.97;100965.75;108857;1249;96211;-72
2024/04/14 04:53:12;;;;;;;17.40;7.50;;;;;;;13.85;63.83;100968.42;109116;1249;106221;-72
2024/04/14 04:56:03;;;;;;;17.30;7.10;;;;;;;13.92;63.85;100965.80;108924;1250;96218;-72
2024/04/14 04:58:53;;;;;;;16.40;7.00;;;;;;;14.01;63.85;100971.52;109010;1250;96819;-71
2024/04/14 05:01:47;;;;;;;14.80;6.50;;;;;;;14.10;64.12;100966.85;108956;1250;111483;-72
2024/04/14 05:04:40;;;;;;;17.70;6.40;;;;;;;14.20;64.31;100956.77;108876;1250;96672;-73
2024/04/14 05:07:30;;;;;;;;;;;;;;;14.35;64.41;100960.50;109028;1251;106395;-72
2024/04/14 05:10:21;;;;;;;15.10;6.40;;;;;;;14.45;64.30;100957.80;109000;1250;96290;-72
2024/04/14 05:13:11;;;;;;;15.80;6.60;;;;;;;14.58;64.29;100951.13;108939;1249;96376;-71
2024/04/14 05:16:03;;;;;;;16.50;6.10;;;;;;;14.70;64.13;100949.68;108898;1250;117534;-72
2024/04/14 05:18:54;;;;;;;16.10;6.10;;;;;;;14.81;64.21;100950.30;108832;1250;96247;-72
2024/04/14 05:21:46;;;;;;;15.20;6.10;;;;;;;14.94;64.19;100949.58;108860;1250;105193;-72
2024/04/14 05:24:28;;;;;;;12.30;5.60;;;;;;;15.06;64.06;100952.87;108835;1250;96881;-71
2024/04/14 05:27:09;;;;;;;17.00;6.20;;;;;;;15.16;64.11;100953.65;108978;1249;96379;-71
2024/04/14 05:29:45;;;;;;;17.30;5.80;;;;;;;15.26;64.05;100952.67;109048;1250;111363;-71
2024/04/14 05:32:36;;;;;;;15.70;5.70;;;;;;;15.36;63.93;100947.42;108936;1250;97547;-72
2024/04/14 05:35:19;;;;;;;18.60;6.40;;;;;;;15.45;63.88;100950.45;108952;1249;107774;-71
2024/04/14 05:38:10;;;;;;;15.70;6.30;;;;;;;15.53;63.83;100949.91;109111;1249;96228;-72
2024/04/14 05:41:01;;;;;;;12.10;5.50;;;;;;;15.62;63.82;100946.42;109158;1249;96263;-72
2024/04/14 05:43:52;;;;;;;11.00;5.50;;;;;;;15.72;63.76;100944.35;109101;1250;112713;-71
2024/04/14 05:46:43;;;;;;;12.00;5.60;;;;;;;15.81;63.59;100943.88;108955;1250;100108;-72
2024/04/14 05:49:34;;;;;;;14.30;5.90;;;;;;;15.92;63.56;100936.69;109065;1250;106343;-72
2024/04/14 05:52:25;;;;;;;12.40;5.30;;;;;;;16.04;63.54;100932.88;108866;1249;96251;-71
2024/04/14 05:55:17;;;;;;;14.00;5.60;;;;;;;16.17;63.26;100933.50;108939;1250;96550;-72
2024/04/14 05:58:01;;;;;;;14.50;6.00;;;;;;;16.31;63.24;100934.30;108904;1253;111152;-73
2024/04/14 06:00:53;;;;;;;11.10;5.00;;;;;;;16.45;63.06;100927.30;108931;1250;96449;-73
2024/04/14 06:03:46;;;;;;;13.40;5.50;;;;;;;16.59;62.78;100919.61;108905;1250;106393;-71
2024/04/14 06:06:37;;;;;;;13.00;5.50;;;;;;;16.71;62.64;100920.87;108888;1251;96382;-72
2024/04/14 06:09:29;;;;;;;13.90;5.70;;;;;;;16.82;62.66;100915.95;108998;1249;96292;-72
2024/04/14 06:12:13;;;;;;;13.30;5.70;;;;;;;16.96;62.40;100915.33;108950;1251;111318;-72
2024/04/14 06:15:13;;;;;;;12.80;5.70;;;;;;;17.09;62.17;100912.88;108939;1249;96237;-72
2024/04/14 06:18:15;;;;;;;14.30;5.10;;;;;;;17.26;62.22;100914.55;108963;1249;112175;-72
2024/04/14 06:21:06;;;;;;;11.40;5.40;;;;;;;17.45;61.98;100914.11;104945;1251;5434145;-71
2024/04/14 06:23:57;;;;;;;12.10;5.20;;;;;;;17.64;61.93;100911.55;109072;1250;111376;-71
2024/04/14 06:26:48;;;;;;;9.80;5.10;;;;;;;17.81;61.73;100908.23;108942;1249;96943;-72
2024/04/14 06:29:39;;;;;;;11.20;5.60;;;;;;;17.99;61.29;100904.21;108933;1251;106296;-72
2024/04/14 06:32:30;;;;;;;10.20;4.90;;;;;;;18.17;61.28;100901.77;108966;1250;96394;-71
2024/04/14 06:35:21;;;;;;;14.80;5.30;;;;;;;18.34;61.26;100898.40;108965;1249;96813;-69
2024/04/14 06:38:06;;;;;;;11.50;5.00;;;;;;;18.51;60.61;100893.77;109092;1251;111264;-71
2024/04/14 06:40:56;;;;;;;11.20;5.10;;;;;;;18.71;60.49;100889.70;109027;1250;96210;-71
2024/04/14 06:43:47;;;;;;;12.60;5.20;;;;;;;18.89;60.25;100886.34;108931;1249;106388;-70
2024/04/14 06:46:37;;;;;;;10.20;4.70;;;;;;;19.06;60.18;100882.56;108809;1251;96872;-71
2024/04/14 06:49:28;;;;;;;9.00;4.70;;;;;;;19.26;59.44;100877.91;108967;1250;96248;-71
2024/04/14 06:52:18;;;;;;;10.40;4.40;;;;;;;19.44;58.69;100871.98;109048;1250;111273;-71
2024/04/14 06:55:01;;;;;;;13.90;4.90;;;;;;;19.60;57.78;100869.02;108988;1251;96269;-70
2024/04/14 06:57:52;;;;;;;11.10;4.70;;;;;;;19.82;57.56;100866.31;108962;1250;106378;-71
2024/04/14 07:00:43;;;;;;;10.20;4.40;;;;;;;20.01;57.99;100863.19;108925;1250;96265;-71
2024/04/14 07:03:14;;;;;;;12.10;4.80;;;;;;;20.16;57.44;100860.54;108962;1249;96215;-71
2024/04/14 07:06:06;;;;;;;11.40;4.90;;;;;;;20.33;56.84;100857.91;108948;1251;110321;-71
2024/04/14 07:08:56;;;;;;;8.90;4.80;;;;;;;20.51;56.45;100855.44;108931;1250;96745;-71
2024/04/14 07:11:48;;;;;;;11.70;5.00;;;;;;;20.67;56.08;100856.71;108915;1249;105282;-72
2024/04/14 07:14:40;;;;;;;13.60;4.70;;;;;;;20.78;55.66;100855.65;108959;1250;96890;-70
2024/04/14 07:17:23;;;;;;;8.00;4.20;;;;;;;20.96;55.26;100854.21;108893;1249;96362;-71
2024/04/14 07:20:04;;;;;;;12.30;4.30;;;;;;;21.21;54.83;100851.30;109002;1250;111305;-71
2024/04/14 07:22:55;;;;;;;11.40;4.50;;;;;;;21.45;54.82;100844.48;108884;1251;97262;-71
2024/04/14 07:25:46;;;;;;;7.10;4.10;;;;;;;21.65;54.62;100848.88;108886;1251;106398;-71
2024/04/14 07:28:38;;;;;;;11.60;3.90;;;;;;;21.83;53.77;100840.59;108918;1250;96648;-71
2024/04/14 07:31:17;;;;;;;6.60;3.80;;;;;;;21.97;53.77;100841.76;108989;1251;96922;-71
2024/04/14 07:34:08;;;;;;;10.10;4.40;;;;;;;22.13;52.72;100834.37;108991;1253;112656;-71
2024/04/14 07:37:02;;;;;;;11.60;4.10;;;;;;;22.36;52.86;100834.04;108916;1250;96621;-71
2024/04/14 07:39:36;;;;;;;7.60;4.20;;;;;;;22.52;52.59;100829.65;108902;1250;106884;-71
2024/04/14 07:42:09;;;;;;;8.00;4.40;;;;;;;22.62;52.29;100824.04;108980;1251;96295;-71
2024/04/14 07:44:43;;;;;;;10.70;4.50;;;;;;;22.83;51.37;100820.09;108972;1251;96258;-71
2024/04/14 07:47:15;;;;;;;7.20;3.90;;;;;;;23.07;51.95;100821.11;108971;1250;111920;-71
2024/04/14 07:50:13;;;;;;;8.40;3.60;;;;;;;23.22;50.83;100816.14;108934;1250;99409;-72
2024/04/14 07:53:05;;;;;;;10.90;4.00;;;;;;;23.39;50.51;100812.91;108947;1250;105794;-71
2024/04/14 07:55:59;;;;;;;8.80;4.40;;;;;;;23.54;50.07;100807.38;108666;1251;96358;-71
2024/04/14 07:58:56;;;;;;;6.50;3.40;;;;;;;23.66;49.39;100796.85;108816;1250;96656;-71
2024/04/14 08:01:30;;;;;;;7.70;3.80;;;;;;;23.77;48.78;100797.05;108970;1250;111406;-71
2024/04/14 08:04:16;;;;;;;10.70;3.70;;;;;;;23.86;48.89;100797.84;108916;1250;96383;-71
2024/04/14 08:06:49;;;;;;;;;;;;;;;23.94;48.54;100798.44;108924;1250;106367;-71
2024/04/14 08:09:22;;;;;;;6.20;3.50;;;;;;;24.03;48.96;100797.77;108876;1250;96660;-71
2024/04/14 08:11:55;;;;;;;7.30;3.60;;;;;;;24.09;48.12;100793.06;108983;1250;96544;-71
2024/04/14 08:14:26;;;;;;;10.40;4.10;;;;;;;24.13;48.02;100788.34;108932;1249;112581;-71
2024/04/14 08:16:57;;;;;;;8.20;3.90;;;;;;;24.20;47.70;100788.21;108866;1249;96748;-71
2024/04/14 08:19:28;;;;;;;9.90;3.60;;;;;;;24.29;47.37;100788.61;108979;1250;106394;-71
2024/04/14 08:21:59;;;;;;;7.10;3.90;;;;;;;24.37;46.98;100785.96;109101;1249;96877;-72
2024/04/14 08:24:50;;;;;;;8.00;3.70;;;;;;;24.47;46.68;100781.70;109096;1249;96224;-71
2024/04/14 08:27:23;;;;;;;7.60;3.50;;;;;;;24.50;46.45;100780.02;109200;1249;111330;-71
2024/04/14 08:29:57;;;;;;;6.80;3.30;;;;;;;24.59;46.55;100782.76;109071;1250;96344;-71
2024/04/14 08:32:28;;;;;;;10.00;4.00;;;;;;;24.63;45.41;100779.84;108945;1250;106363;-71
2024/04/14 08:34:59;;;;;;;6.40;3.60;;;;;;;24.67;45.36;100781.21;108988;1249;96267;-72
2024/04/14 08:37:30;;;;;;;10.10;3.70;;;;;;;24.69;45.14;100776.17;108956;1251;96293;-71
2024/04/14 08:40:01;;;;;;;7.90;3.80;;;;;;;24.77;44.84;100772.78;108975;1250;112616;-71
2024/04/14 08:42:34;;;;;;;7.00;3.60;;;;;;;24.86;44.79;100767.60;108986;1250;96913;-71
2024/04/14 08:45:09;;;;;;;7.20;3.70;;;;;;;24.94;45.00;100758.67;108936;1250;107853;-71
2024/04/14 08:47:42;;;;;;;6.70;3.50;;;;;;;24.97;44.61;100756.65;108965;1250;96616;-71
2024/04/14 08:50:13;;;;;;;9.30;3.90;;;;;;;24.97;44.18;100753.80;109009;1251;96827;-71
2024/04/14 08:52:45;;;;;;;10.00;4.30;;;;;;;24.95;43.78;100752.04;108980;1250;111396;-71
2024/04/14 08:55:17;;;;;;;8.40;3.70;;;;;;;25.02;43.92;100749.77;108946;1250;96499;-71
2024/04/14 08:57:51;;;;;;;6.90;3.70;;;;;;;25.08;43.46;100753.77;109077;1250;106353;-71
2024/04/14 09:00:26;;;;;;;9.70;3.50;;;;;;;25.12;43.30;100749.71;108962;1250;96750;-71
2024/04/14 09:02:57;;;;;;;7.20;3.50;;;;;;;25.15;43.14;100744.30;108976;1251;96866;-71
2024/04/14 09:05:32;;;;;;;7.00;4.00;;;;;;;25.14;43.13;100740.75;108978;1250;112599;-71
2024/04/14 09:08:14;;;;;;;7.60;3.70;;;;;;;25.16;42.72;100733.38;108956;1250;96258;-72
2024/04/14 09:10:45;;;;;;;6.50;3.30;;;;;;;25.24;42.71;100730.69;109053;1250;106799;-71
2024/04/14 09:13:18;;;;;;;7.20;3.40;;;;;;;25.34;42.60;100729.61;109043;1250;96877;-71
2024/04/14 09:15:53;;;;;;;7.20;3.50;;;;;;;25.37;42.42;100725.23;109044;1251;96654;-71
2024/04/14 09:18:24;;;;;;;9.30;3.80;;;;;;;25.37;42.44;100717.89;109117;1251;111403;-71
2024/04/14 09:20:54;;;;;;;8.20;3.80;;;;;;;25.38;41.56;100713.22;108865;1250;96300;-71
2024/04/14 09:23:26;;;;;;;8.20;4.20;;;;;;;25.36;41.24;100718.28;109020;1250;107659;-72
2024/04/14 09:25:56;;;;;;;5.80;3.40;;;;;;;25.37;41.47;100718.08;108941;1249;96877;-71
2024/04/14 09:28:32;;;;;;;6.60;3.30;;;;;;;25.41;41.38;100714.94;109007;1249;96864;-72
2024/04/14 09:31:03;;;;;;;11.50;3.50;;;;;;;25.41;40.75;100713.50;109047;1249;112647;-71
2024/04/14 09:33:34;;;;;;;7.90;3.60;;;;;;;25.38;40.91;100707.85;109020;1250;96319;-72
2024/04/14 09:36:06;;;;;;;6.50;3.70;;;;;;;25.42;40.97;100707.92;108963;1250;106355;-71
2024/04/14 09:38:37;;;;;;;8.40;3.50;;;;;;;25.51;40.59;100700.22;109011;1250;96909;-72
2024/04/14 09:41:08;;;;;;;7.40;3.80;;;;;;;25.62;40.69;100698.16;108959;1250;97284;-71
2024/04/14 09:43:40;;;;;;;8.10;3.30;;;;;;;25.67;40.48;100696.27;108971;1251;111282;-72
2024/04/14 09:46:11;;;;;;;7.80;3.40;;;;;;;25.70;40.16;100694.73;108897;1250;98104;-72
2024/04/14 09:48:43;;;;;;;7.00;3.30;;;;;;;25.75;40.17;100692.85;109061;1250;107626;-71
2024/04/14 09:51:19;;;;;;;10.10;3.80;;;;;;;25.83;40.15;100690.84;108970;1250;96294;-71
2024/04/14 09:53:50;;;;;;;6.00;3.40;;;;;;;25.89;40.10;100686.24;109002;1251;96294;-71
2024/04/14 09:56:23;;;;;;;6.80;3.40;;;;;;;25.93;39.80;100686.49;109006;1250;111294;-71
2024/04/14 09:58:55;;;;;;;6.10;3.80;;;;;;;26.04;39.61;100684.48;108959;1249;96859;-71
2024/04/14 10:01:30;;;;;;;7.70;3.50;;;;;;;26.11;39.47;100679.96;108929;1250;106225;-71
2024/04/14 10:04:02;;;;;;;11.10;3.70;;;;;;;26.17;39.63;100676.22;108810;1250;96840;-72
2024/04/14 10:06:35;;;;;;;7.50;3.50;;;;;;;26.26;38.98;100668.64;108832;1250;96255;-72
2024/04/14 10:09:08;;;;;;;5.70;3.50;;;;;;;26.34;38.88;100661.42;108850;1250;111343;-72
2024/04/14 10:11:42;;;;;;;7.10;3.60;;;;;;;26.38;38.68;100658.44;108820;1250;96487;-71
2024/04/14 10:14:15;;;;;;;12.50;3.80;;;;;;;26.38;38.47;100656.11;108976;1250;107584;-71
2024/04/14 10:17:00;;;;;;;6.70;3.80;;;;;;;26.41;38.45;100656.41;109145;1249;96517;-72
2024/04/14 10:19:36;;;;;;;7.10;3.50;;;;;;;26.50;38.44;100652.02;109090;1253;96193;-72
2024/04/14 10:22:11;;;;;;;8.10;3.20;;;;;;;26.64;38.11;100650.94;109036;1251;112593;-72
2024/04/14 10:24:55;;;;;;;6.60;3.80;;;;;;;26.71;38.22;100640.71;108890;1251;96489;-72
2024/04/14 10:27:30;;;;;;;6.90;3.50;;;;;;;26.73;37.84;100640.11;108922;1250;106783;-72
2024/04/14 10:30:03;;;;;;;7.70;3.70;;;;;;;26.79;37.61;100639.95;108938;1249;96317;-72
2024/04/14 10:32:34;;;;;;;8.40;3.60;;;;;;;26.79;37.23;100633.30;108842;1250;96351;-72
2024/04/14 10:35:15;;;;;;;9.80;3.60;;;;;;;26.80;37.39;100630.22;108998;1251;111422;-72
2024/04/14 10:37:56;;;;;;;9.30;3.50;;;;;;;26.86;37.42;100627.88;109029;1250;97394;-72
2024/04/14 10:40:26;;;;;;;7.80;3.60;;;;;;;26.94;37.46;100631.96;108972;1250;106277;-72
2024/04/14 10:42:57;;;;;;;9.70;3.50;;;;;;;26.95;37.48;100635.14;108961;1250;97040;-72
2024/04/14 10:45:29;;;;;;;10.30;3.90;;;;;;;26.93;37.31;100631.46;109082;1250;96354;-72
2024/04/14 10:48:00;;;;;;;6.60;3.40;;;;;;;26.91;37.26;100621.81;108995;1250;111334;-72
2024/04/14 10:50:31;;;;;;;7.70;3.40;;;;;;;26.96;37.00;100622.04;108928;1253;96802;-72
2024/04/14 10:53:01;;;;;;;10.90;3.50;;;;;;;27.01;36.78;100617.17;108911;1251;107743;-72
2024/04/14 10:55:34;;;;;;;8.90;3.80;;;;;;;27.02;36.71;100611.04;109008;1250;96294;-72
2024/04/14 10:58:05;;;;;;;7.20;3.30;;;;;;;27.05;36.72;100610.96;108869;1250;96715;-72
2024/04/14 11:00:36;;;;;;;11.90;3.40;;;;;;;27.11;36.52;100604.35;108940;1250;111587;-72
2024/04/14 11:03:09;;;;;;;7.90;3.60;;;;;;;27.14;36.52;100608.34;108946;1250;96446;-71
2024/04/14 11:05:40;;;;;;;13.10;3.70;;;;;;;27.11;36.03;100610.25;108939;1250;107877;-72
2024/04/14 11:08:11;;;;;;;7.50;3.40;;;;;;;27.07;35.97;100609.48;108889;1249;96354;-72
2024/04/14 11:10:52;;;;;;;5.00;3.20;;;;;;;26.99;36.05;100601.83;109011;1250;96289;-71
2024/04/14 11:13:27;;;;;;;4.60;3.20;;;;;;;26.96;36.04;100602.98;108994;1249;112307;-72
2024/04/14 11:15:59;;;;;;;7.10;3.40;;;;;;;27.06;36.24;100596.92;109117;1250;96812;-73
2024/04/14 11:18:32;;;;;;;7.10;3.50;;;;;;;27.18;36.16;100592.09;108912;1251;106318;-71
2024/04/14 11:21:02;;;;;;;5.90;3.10;;;;;;;27.22;35.85;100585.67;109009;1249;96844;-72
2024/04/14 11:23:33;;;;;;;8.20;3.90;;;;;;;27.24;35.66;100586.67;108962;1250;96366;-72
2024/04/14 11:26:04;;;;;;;8.10;3.50;;;;;;;27.30;35.89;100578.98;108981;1252;112798;-73
2024/04/14 11:28:35;;;;;;;5.90;3.50;;;;;;;27.33;35.89;100578.18;109030;1253;96483;-72
2024/04/14 11:31:06;;;;;;;9.10;3.50;;;;;;;27.31;35.73;100570.48;108964;1250;107782;-72
2024/04/14 11:33:37;;;;;;;9.70;3.70;;;;;;;27.31;35.66;100566.55;108956;1251;96359;-72
2024/04/14 11:36:11;;;;;;;9.60;3.70;;;;;;;27.27;35.72;100565.02;109038;1253;96221;-72
2024/04/14 11:38:42;;;;;;;9.20;3.50;;;;;;;27.32;35.82;100566.71;109028;1251;111341;-73
2024/04/14 11:41:19;;;;;;;8.70;3.20;;;;;;;27.35;35.47;100562.66;108987;1251;96483;-72
2024/04/14 11:43:53;;;;;;;10.70;3.80;;;;;;;27.40;35.49;100556.94;108963;1250;106231;-72
2024/04/14 11:46:23;;;;;;;8.00;3.30;;;;;;;27.46;35.65;100548.44;108896;1250;96632;-72
2024/04/14 11:48:54;;;;;;;6.60;3.20;;;;;;;27.50;35.25;100548.11;109018;1250;96223;-71
2024/04/14 11:51:25;;;;;;;10.30;3.60;;;;;;;27.55;35.37;100540.05;108936;1250;112616;-72
2024/04/14 11:53:56;;;;;;;7.90;3.80;;;;;;;27.63;35.38;100529.56;108904;1251;96654;-72
2024/04/14 11:56:27;;;;;;;6.20;3.20;;;;;;;27.72;35.24;100525.10;108975;1251;105965;-75
2024/04/14 11:58:58;;;;;;;6.00;3.20;;;;;;;27.78;35.10;100525.06;108958;1251;96660;-72
2024/04/14 12:01:28;;;;;;;8.40;3.10;;;;;;;27.78;34.93;100516.27;109042;1251;96587;-73
2024/04/14 12:03:59;;;;;;;8.70;3.40;;;;;;;27.78;34.82;100512.68;109069;1250;111322;-73
2024/04/14 12:06:32;;;;;;;6.20;3.40;;;;;;;27.77;34.38;100516.46;109005;1250;96730;-72
2024/04/14 12:09:02;;;;;;;9.20;3.30;;;;;;;27.80;34.55;100508.83;109053;1251;106391;-72
2024/04/14 12:11:33;;;;;;;5.90;3.20;;;;;;;27.84;34.43;100498.25;108913;1249;96576;-72
2024/04/14 12:14:04;;;;;;;5.40;3.40;;;;;;;27.88;34.41;100492.73;109020;1251;96274;-73
2024/04/14 12:16:35;;;;;;;6.20;3.90;;;;;;;27.91;34.22;100486.88;108955;1251;111331;-72
2024/04/14 12:19:06;;;;;;;7.10;3.60;;;;;;;27.93;34.35;100490.20;108993;1250;96541;-71
2024/04/14 12:21:36;;;;;;;8.50;3.60;;;;;;;27.95;34.36;100491.59;108957;1251;106395;-72